Metar z połowy godziny Komunikat METAR ze strony awiacja.imgw.pl Metar G00 EPPO METAR EPPO 271330Z 13010KT 5000 BR BKN005 01/M00 Q0995 =